Terminal Aerodrome Forecast
Issued by NWS

Home | Current Version | Previous Version | Text Only | Print | Product List | Glossary On
Versions: 1 2 3 4 5 6 7 8 9 10 11 12 13 14 15 16 17 18 19 20 21 22
000
FTUS43 KDVN 270500 RRA
TAFCID
TAF
KCID 270543Z 2706/2806 VRB03KT P6SM -RA OVC022
     FM270900 27004KT 4SM -RA BR OVC004
     FM271300 27013KT 5SM BR OVC008
     FM271600 29016G24KT P6SM BKN015
     FM272000 29010KT P6SM BKN025=

USA.gov is the U.S. government's official web portal to all federal, state and local government web resources and services.